Time;durP1;ratioP1;P1;durP2;ratioP2;P2;SDS_P1;SDS_P2;PMS_P1;PMS_P2;Temp;Humidity;BMP_temperature;BMP_pressure;BME280_temperature;BME280_humidity;BME280_pressure;Samples;Min_cycle;Max_cycle;Signal;HPM_P1;HPM_P2
2021/10/10 00:02:15;;;;;;;0.80;0.60;;;;;;;8.42;100.00;95647.34;5104604;28;20050;-70
2021/10/10 00:04:42;;;;;;;0.70;0.47;;;;;;;8.47;100.00;95644.97;5104428;28;20043;-71
2021/10/10 00:07:10;;;;;;;0.65;0.50;;;;;;;8.51;100.00;95659.13;5096536;28;20048;-71
2021/10/10 00:09:36;;;;;;;1.13;0.82;;;;;;;8.50;100.00;95654.13;5090027;28;20035;-70
2021/10/10 00:12:03;;;;;;;1.23;0.60;;;;;;;8.51;100.00;95653.94;5089722;28;20059;-70
2021/10/10 00:14:30;;;;;;;1.83;0.93;;;;;;;8.54;100.00;95661.34;5074034;28;20420;-70
2021/10/10 00:16:57;;;;;;;0.60;0.57;;;;;;;8.53;100.00;95654.53;5084258;28;20515;-70
2021/10/10 00:19:24;;;;;;;1.02;0.65;;;;;;;8.58;100.00;95665.13;5094563;28;20054;-70
2021/10/10 00:21:50;;;;;;;1.27;0.75;;;;;;;8.60;100.00;95665.75;5084141;28;20040;-70
2021/10/10 00:24:17;;;;;;;0.68;0.57;;;;;;;8.56;100.00;95658.56;5100830;28;20044;-71
2021/10/10 00:26:44;;;;;;;1.08;0.70;;;;;;;8.49;100.00;95653.34;5087443;28;20093;-71
2021/10/10 00:29:11;;;;;;;1.27;0.88;;;;;;;8.48;100.00;95651.75;5116790;28;20039;-71
2021/10/10 00:31:37;;;;;;;1.20;0.82;;;;;;;8.49;100.00;95657.75;5087477;28;20436;-71
2021/10/10 00:34:04;;;;;;;1.45;0.80;;;;;;;8.52;100.00;95668.53;5098002;28;20051;-71
2021/10/10 00:36:31;;;;;;;0.90;0.70;;;;;;;8.48;100.00;95656.94;5069736;28;20044;-71
2021/10/10 00:38:58;;;;;;;0.80;0.57;;;;;;;8.52;100.00;95662.56;5095162;28;20175;-71
2021/10/10 00:41:24;;;;;;;0.70;0.50;;;;;;;8.45;100.00;95672.91;5086880;28;20048;-70
2021/10/10 00:43:51;;;;;;;0.60;0.50;;;;;;;8.35;100.00;95651.69;5104954;28;20036;-70
2021/10/10 00:46:18;;;;;;;0.93;0.40;;;;;;;8.44;100.00;95660.91;5091684;28;20416;-70
2021/10/10 00:48:45;;;;;;;0.70;0.50;;;;;;;8.41;100.00;95656.13;5101195;28;20054;-70
2021/10/10 00:51:12;;;;;;;0.50;0.40;;;;;;;8.36;100.00;95653.31;5087206;28;20093;-70
2021/10/10 00:53:39;;;;;;;0.77;0.43;;;;;;;8.40;100.00;95649.31;5098215;28;20073;-70
2021/10/10 00:56:07;;;;;;;0.98;0.60;;;;;;;8.34;100.00;95648.31;5107376;28;20036;-70
2021/10/10 00:58:36;;;;;;;0.90;0.57;;;;;;;8.34;100.00;95644.91;5097928;28;20039;-71
2021/10/10 01:01:03;;;;;;;1.90;0.70;;;;;;;8.37;100.00;95634.94;5087411;28;20073;-71
2021/10/10 01:03:30;;;;;;;0.60;0.40;;;;;;;8.35;100.00;95630.91;5094046;28;20518;-70
2021/10/10 01:05:57;;;;;;;1.85;0.80;;;;;;;8.32;100.00;95631.31;5103566;28;20032;-71
2021/10/10 01:08:23;;;;;;;0.75;0.50;;;;;;;8.30;100.00;95618.56;5107054;28;20052;-71
2021/10/10 01:10:50;;;;;;;0.80;0.50;;;;;;;8.31;100.00;95632.31;5106516;28;21200;-70
2021/10/10 01:13:18;;;;;;;0.60;0.40;;;;;;;8.29;100.00;95621.34;5091448;28;20132;-71
2021/10/10 01:15:47;;;;;;;1.35;0.60;;;;;;;8.30;100.00;95622.91;5086129;28;20618;-71
2021/10/10 01:18:22;;;;;;;1.02;0.75;;;;;;;8.30;100.00;95617.72;5068490;28;20052;-70
2021/10/10 01:20:51;;;;;;;1.65;0.60;;;;;;;8.35;100.00;95625.72;5067823;28;20055;-71
2021/10/10 01:23:18;;;;;;;0.95;0.43;;;;;;;8.25;100.00;95631.31;5086767;28;20087;-70
2021/10/10 01:25:45;;;;;;;0.85;0.60;;;;;;;8.20;100.00;95612.94;5086781;28;20040;-71
2021/10/10 01:28:12;;;;;;;0.93;0.60;;;;;;;8.18;100.00;95610.53;5099175;28;20093;-70
2021/10/10 01:30:39;;;;;;;0.43;0.40;;;;;;;8.28;100.00;95630.09;5106825;28;20055;-69
2021/10/10 01:33:11;;;;;;;0.30;0.28;;;;;;;8.31;100.00;95629.72;5106405;28;20039;-70
2021/10/10 01:35:39;;;;;;;0.98;0.70;;;;;;;8.29;100.00;95626.53;5095142;28;20047;-70
2021/10/10 01:38:08;;;;;;;0.73;0.68;;;;;;;8.35;100.00;95617.94;5086631;28;20036;-70
2021/10/10 01:40:35;;;;;;;0.60;0.30;;;;;;;8.32;100.00;95615.72;5086431;28;20078;-70
2021/10/10 01:43:03;;;;;;;1.20;0.50;;;;;;;8.20;100.00;95608.53;5086542;28;20064;-70
2021/10/10 01:45:31;;;;;;;0.68;0.52;;;;;;;8.20;100.00;95603.34;5094953;28;20044;-70
2021/10/10 01:47:58;;;;;;;0.70;0.43;;;;;;;8.26;100.00;95621.72;5088570;28;20056;-71
2021/10/10 01:50:24;;;;;;;0.95;0.65;;;;;;;8.19;100.00;95612.13;5095491;28;20052;-71
2021/10/10 01:52:51;;;;;;;0.85;0.50;;;;;;;8.25;100.00;95626.13;5089635;28;20108;-70
2021/10/10 01:55:19;;;;;;;0.57;0.40;;;;;;;8.31;100.00;95634.91;5097852;28;20051;-70
2021/10/10 01:57:46;;;;;;;0.95;0.60;;;;;;;8.33;100.00;95633.72;5086117;28;20123;-71
2021/10/10 02:00:13;;;;;;;0.63;0.57;;;;;;;8.41;100.00;95632.75;5092010;28;20043;-70
2021/10/10 02:02:40;;;;;;;0.60;0.40;;;;;;;8.26;100.00;95600.97;5105971;28;20523;-70
2021/10/10 02:05:09;;;;;;;0.60;0.50;;;;;;;8.34;100.00;95624.16;5097452;28;20509;-70
2021/10/10 02:07:37;;;;;;;1.50;0.50;;;;;;;8.35;100.00;95615.34;5105834;28;20423;-70
2021/10/10 02:10:06;;;;;;;1.55;0.75;;;;;;;8.24;100.00;95614.91;5086158;28;20499;-70
2021/10/10 02:12:32;;;;;;;1.02;0.60;;;;;;;8.26;100.00;95621.72;5084609;28;20056;-71
2021/10/10 02:14:59;;;;;;;0.55;0.40;;;;;;;8.27;100.00;95623.34;5091486;28;20062;-70
2021/10/10 02:17:26;;;;;;;0.60;0.50;;;;;;;8.21;100.00;95625.72;5084875;28;20039;-70
2021/10/10 02:19:53;;;;;;;1.02;0.57;;;;;;;8.17;100.00;95616.69;5095841;28;20039;-70
2021/10/10 02:22:19;;;;;;;0.57;0.50;;;;;;;8.15;100.00;95626.47;5088020;28;20052;-71
2021/10/10 02:24:46;;;;;;;1.27;0.60;;;;;;;8.20;100.00;95631.88;5088612;28;20044;-71
2021/10/10 02:27:13;;;;;;;0.90;0.55;;;;;;;8.28;100.00;95648.28;5094252;28;20051;-71
2021/10/10 02:29:40;;;;;;;0.45;0.40;;;;;;;8.26;100.00;95648.47;5105329;28;20500;-70
2021/10/10 02:32:07;;;;;;;4.43;0.90;;;;;;;8.30;100.00;95644.50;5099466;28;20047;-71
2021/10/10 02:34:34;;;;;;;0.45;0.30;;;;;;;8.33;100.00;95627.72;5086030;28;20048;-71
2021/10/10 02:37:00;;;;;;;0.65;0.30;;;;;;;8.41;100.00;95635.34;5087511;28;20043;-70
2021/10/10 02:39:27;;;;;;;1.58;0.70;;;;;;;8.52;100.00;95632.19;5085663;28;20048;-70
2021/10/10 02:41:58;;;;;;;0.77;0.47;;;;;;;8.27;100.00;95607.75;5103949;28;20047;-70
2021/10/10 02:44:25;;;;;;;1.40;0.50;;;;;;;8.44;100.00;95634.16;5100894;28;20499;-70
2021/10/10 02:46:52;;;;;;;0.55;0.40;;;;;;;8.27;100.00;95610.34;5104694;28;20096;-70
2021/10/10 02:49:19;;;;;;;1.23;0.95;;;;;;;8.46;100.00;95630.38;5096317;28;20040;-71
2021/10/10 02:51:47;;;;;;;0.90;0.60;;;;;;;8.44;100.00;95632.38;5084510;28;20047;-71
2021/10/10 02:54:14;;;;;;;0.80;0.60;;;;;;;8.51;100.00;95630.56;5088687;28;20055;-70
2021/10/10 02:56:40;;;;;;;1.63;0.95;;;;;;;8.50;100.00;95623.81;5093379;28;20039;-71
2021/10/10 02:59:07;;;;;;;0.68;0.40;;;;;;;8.45;100.00;95615.81;5092871;28;20043;-71
2021/10/10 03:01:34;;;;;;;2.10;0.98;;;;;;;8.55;100.00;95630.97;5086161;28;20048;-71
2021/10/10 03:04:01;;;;;;;0.90;0.40;;;;;;;8.53;100.00;95622.59;5086555;28;20364;-71
2021/10/10 03:06:27;;;;;;;0.55;0.40;;;;;;;8.51;100.00;95620.19;5083966;28;20058;-69
2021/10/10 03:08:54;;;;;;;3.20;0.40;;;;;;;8.46;100.00;95622.56;5082164;28;20569;-70
2021/10/10 03:11:21;;;;;;;0.40;0.32;;;;;;;8.42;100.00;95621.38;5104854;28;20107;-70
2021/10/10 03:13:48;;;;;;;1.10;0.60;;;;;;;8.36;100.00;95624.75;5097401;28;20093;-70
2021/10/10 03:16:15;;;;;;;1.15;0.63;;;;;;;8.40;100.00;95620.75;5087603;28;20487;-70
2021/10/10 03:18:41;;;;;;;0.95;0.47;;;;;;;8.40;100.00;95624.13;5089895;28;20580;-70
2021/10/10 03:21:08;;;;;;;0.93;0.73;;;;;;;8.42;100.00;95605.81;5086065;28;20048;-70
2021/10/10 03:23:35;;;;;;;0.77;0.57;;;;;;;8.46;100.00;95611.41;5090683;28;20050;-70
2021/10/10 03:26:02;;;;;;;1.20;0.57;;;;;;;8.41;100.00;95614.56;5087881;28;20044;-70
2021/10/10 03:28:28;;;;;;;0.93;0.60;;;;;;;8.41;100.00;95617.16;5086163;28;20040;-70
2021/10/10 03:30:55;;;;;;;0.68;0.50;;;;;;;8.39;100.00;95622.56;5085326;28;20039;-70
2021/10/10 03:33:22;;;;;;;0.85;0.50;;;;;;;8.37;100.00;95624.56;5066186;28;20036;-70
2021/10/10 03:35:49;;;;;;;0.50;0.40;;;;;;;8.26;100.00;95617.31;5083742;28;20044;-70
2021/10/10 03:38:16;;;;;;;0.30;0.30;;;;;;;8.33;100.00;95627.72;5083661;28;20044;-69
2021/10/10 03:40:43;;;;;;;0.80;0.47;;;;;;;8.41;100.00;95630.94;5084093;28;20043;-70
2021/10/10 03:43:09;;;;;;;1.98;0.30;;;;;;;8.40;100.00;95625.94;5084528;28;20048;-71
2021/10/10 03:45:36;;;;;;;1.15;0.65;;;;;;;8.38;100.00;95625.34;5085276;28;20101;-70
2021/10/10 03:48:03;;;;;;;0.75;0.43;;;;;;;8.44;100.00;95634.97;5089888;28;20028;-71
2021/10/10 03:50:30;;;;;;;0.57;0.40;;;;;;;8.37;100.00;95634.13;5089155;28;20029;-71
2021/10/10 03:52:57;;;;;;;0.47;0.30;;;;;;;8.40;100.00;95629.34;5072464;28;20039;-70
2021/10/10 03:57:57;;;;;;;0.50;0.50;;;;;;;8.38;100.00;95636.53;5085198;28;20036;-72
2021/10/10 04:00:25;;;;;;;0.60;0.32;;;;;;;8.49;100.00;95627.38;5088075;28;20520;-70
2021/10/10 04:02:52;;;;;;;0.68;0.35;;;;;;;8.44;100.00;95618.59;5086687;28;20089;-71
2021/10/10 04:07:48;;;;;;;0.93;0.57;;;;;;;8.48;100.00;95614.59;5089259;28;20039;-70
2021/10/10 04:10:16;;;;;;;0.90;0.73;;;;;;;8.49;100.00;95622.19;5089565;28;20051;-70
2021/10/10 04:12:43;;;;;;;1.05;0.43;;;;;;;8.55;100.00;95616.22;5108342;28;20905;-70
2021/10/10 04:15:10;;;;;;;3.80;0.47;;;;;;;8.58;100.00;95621.00;5092135;28;20043;-70
2021/10/10 04:17:37;;;;;;;1.63;0.85;;;;;;;8.42;100.00;95611.00;5092637;28;20035;-70
2021/10/10 04:20:04;;;;;;;1.77;0.95;;;;;;;8.46;100.00;95617.38;5087880;28;20058;-71
2021/10/10 04:22:31;;;;;;;1.30;0.80;;;;;;;8.47;100.00;95619.00;5087556;28;20056;-70
2021/10/10 04:24:58;;;;;;;0.98;0.75;;;;;;;8.54;100.00;95624.19;5097966;28;20051;-71
2021/10/10 04:27:26;;;;;;;1.67;0.75;;;;;;;8.60;100.00;95619.00;5091978;28;20040;-71
2021/10/10 04:29:53;;;;;;;1.13;0.50;;;;;;;8.59;100.00;95627.81;5092254;28;20105;-71
2021/10/10 04:32:19;;;;;;;0.30;0.20;;;;;;;8.54;100.00;95619.00;5092793;28;20043;-70
2021/10/10 04:34:46;;;;;;;0.70;0.40;;;;;;;8.72;100.00;95621.81;5077672;28;20043;-71
2021/10/10 04:37:13;;;;;;;0.70;0.32;;;;;;;8.76;100.00;95627.41;5102272;28;20032;-70
2021/10/10 04:39:40;;;;;;;0.73;0.30;;;;;;;8.85;100.00;95625.41;5096977;28;20036;-71
2021/10/10 04:42:07;;;;;;;1.42;0.52;;;;;;;8.82;100.00;95621.41;5088276;28;20105;-71
2021/10/10 04:44:35;;;;;;;1.60;0.40;;;;;;;8.84;100.00;95616.84;5091613;28;20078;-70
2021/10/10 04:47:03;;;;;;;0.88;0.55;;;;;;;8.84;100.00;95624.63;5087294;28;20470;-70
2021/10/10 04:49:31;;;;;;;0.63;0.45;;;;;;;8.75;100.00;95618.00;5089389;28;20055;-71
2021/10/10 04:51:58;;;;;;;0.60;0.30;;;;;;;8.70;100.00;95630.81;5068037;28;20097;-71
2021/10/10 04:54:25;;;;;;;0.63;0.55;;;;;;;8.64;100.00;95623.81;5088628;28;20555;-71
2021/10/10 04:56:52;;;;;;;0.63;0.50;;;;;;;8.66;100.00;95637.38;5090513;28;20576;-71
2021/10/10 04:59:18;;;;;;;1.02;0.50;;;;;;;8.58;100.00;95641.78;5092165;28;20416;-71
2021/10/10 05:01:45;;;;;;;0.38;0.25;;;;;;;8.65;100.00;95636.59;5100607;28;20044;-71
2021/10/10 05:04:12;;;;;;;0.77;0.68;;;;;;;8.65;100.00;95630.59;5104046;28;20038;-70
2021/10/10 05:06:40;;;;;;;2.03;0.57;;;;;;;8.63;100.00;95637.81;5098063;28;20816;-71
2021/10/10 05:09:10;;;;;;;1.05;0.65;;;;;;;8.71;100.00;95640.19;5090711;28;20036;-66
2021/10/10 05:11:37;;;;;;;0.70;0.50;;;;;;;8.58;100.00;95626.19;5086726;28;20101;-66
2021/10/10 05:14:04;;;;;;;1.25;0.68;;;;;;;8.50;100.00;95629.00;5086679;28;20040;-66
2021/10/10 05:16:30;;;;;;;0.60;0.50;;;;;;;8.59;100.00;95648.56;5067033;28;20043;-66
2021/10/10 05:18:57;;;;;;;1.08;0.75;;;;;;;8.53;100.00;95644.16;5086715;28;20101;-66
2021/10/10 05:21:24;;;;;;;0.63;0.63;;;;;;;8.49;100.00;95653.34;5086529;28;20416;-66
2021/10/10 05:23:51;;;;;;;0.50;0.30;;;;;;;8.61;100.00;95645.78;5086416;28;20047;-66
2021/10/10 05:26:17;;;;;;;1.42;0.88;;;;;;;8.59;100.00;95648.56;5086775;28;20055;-66
2021/10/10 05:28:44;;;;;;;0.75;0.50;;;;;;;8.53;100.00;95640.75;5101798;28;20135;-66
2021/10/10 05:31:11;;;;;;;1.15;0.43;;;;;;;8.56;100.00;95648.97;5100942;28;20047;-66
2021/10/10 05:33:38;;;;;;;1.25;0.63;;;;;;;8.57;100.00;95645.38;5086355;28;20043;-66
2021/10/10 05:36:04;;;;;;;0.98;0.52;;;;;;;8.60;100.00;95646.78;5095765;28;20047;-66
2021/10/10 05:38:31;;;;;;;1.08;0.50;;;;;;;8.56;100.00;95651.56;5106090;28;20062;-66
2021/10/10 05:40:58;;;;;;;0.77;0.52;;;;;;;8.57;100.00;95640.19;5106205;28;20047;-66
2021/10/10 05:43:25;;;;;;;1.05;0.70;;;;;;;8.64;100.00;95639.38;5099444;28;20040;-66
2021/10/10 05:45:52;;;;;;;1.45;0.50;;;;;;;8.61;100.00;95636.19;5085779;28;20051;-66
2021/10/10 05:48:19;;;;;;;0.63;0.50;;;;;;;8.51;100.00;95635.78;5087680;28;20035;-66
2021/10/10 05:50:46;;;;;;;1.50;0.68;;;;;;;8.51;100.00;95635.78;5091335;28;20040;-66
2021/10/10 05:53:12;;;;;;;0.82;0.65;;;;;;;8.56;100.00;95638.56;5088925;28;20044;-66
2021/10/10 05:55:40;;;;;;;3.45;0.50;;;;;;;8.55;100.00;95636.19;5102673;28;20454;-66
2021/10/10 05:58:10;;;;;;;1.10;0.70;;;;;;;8.52;100.00;95644.38;5105179;28;20066;-66
2021/10/10 06:00:37;;;;;;;0.77;0.35;;;;;;;8.58;100.00;95646.97;5084096;28;20040;-66
2021/10/10 06:03:07;;;;;;;0.88;0.52;;;;;;;8.64;100.00;95644.56;5100447;28;20048;-66
2021/10/10 06:05:35;;;;;;;4.20;3.25;;;;;;;8.69;100.00;95657.78;5098630;28;20036;-66
2021/10/10 06:08:02;;;;;;;0.73;0.70;;;;;;;8.70;100.00;95654.97;5067133;28;20067;-66
2021/10/10 06:10:29;;;;;;;1.52;0.82;;;;;;;8.74;100.00;95655.38;5085737;28;20140;-66
2021/10/10 06:12:56;;;;;;;0.95;0.47;;;;;;;8.51;100.00;95604.63;5102953;28;20524;-66
2021/10/10 06:15:23;;;;;;;0.50;0.20;;;;;;;8.74;100.00;95650.19;5091687;28;20066;-66
2021/10/10 06:17:50;;;;;;;2.88;0.70;;;;;;;8.79;100.00;95651.19;5087013;28;20496;-66
2021/10/10 06:20:17;;;;;;;1.02;0.60;;;;;;;8.82;100.00;95646.59;5067194;28;20973;-66
2021/10/10 06:22:44;;;;;;;3.50;1.00;;;;;;;8.89;100.00;95642.97;5088317;28;20043;-66
2021/10/10 06:25:10;;;;;;;1.35;0.57;;;;;;;8.80;100.00;95633.78;5103944;28;20032;-66
2021/10/10 06:27:37;;;;;;;2.42;1.73;;;;;;;8.81;100.00;95635.41;5065979;28;20043;-66
2021/10/10 06:30:05;;;;;;;4.65;2.55;;;;;;;8.81;100.00;95630.22;5083514;28;20047;-66
2021/10/10 06:32:31;;;;;;;6.97;3.58;;;;;;;8.93;100.00;95639.00;5072398;28;20055;-67
2021/10/10 06:34:58;;;;;;;22.55;10.52;;;;;;;8.87;100.00;95629.41;5086978;28;20443;-66
2021/10/10 06:37:25;;;;;;;15.38;7.50;;;;;;;8.86;100.00;95633.00;5099993;28;20035;-67
2021/10/10 06:39:52;;;;;;;18.60;9.55;;;;;;;8.90;100.00;95644.59;5073210;28;20488;-66
2021/10/10 06:42:19;;;;;;;5.43;3.22;;;;;;;8.88;100.00;95638.00;5095825;28;20044;-66
2021/10/10 06:44:45;;;;;;;8.93;4.60;;;;;;;8.96;100.00;95633.38;5095831;28;20058;-66
2021/10/10 06:47:12;;;;;;;4.90;2.88;;;;;;;8.95;100.00;95642.19;5095785;28;20059;-66
2021/10/10 06:49:39;;;;;;;7.40;2.80;;;;;;;8.89;100.00;95637.78;5094800;28;20031;-67
2021/10/10 06:52:06;;;;;;;5.38;3.72;;;;;;;8.93;100.00;95628.63;5104837;28;20051;-66
2021/10/10 06:54:32;;;;;;;15.85;10.60;;;;;;;8.93;100.00;95643.38;5068245;28;20089;-67
2021/10/10 06:56:59;;;;;;;19.92;12.50;;;;;;;8.95;100.00;95644.81;5086001;28;20444;-66
2021/10/10 06:59:26;;;;;;;14.13;9.95;;;;;;;9.06;100.00;95643.41;5098770;28;20441;-66
2021/10/10 07:01:53;;;;;;;12.20;8.18;;;;;;;9.09;100.00;95626.59;5104603;28;20412;-66
2021/10/10 07:04:20;;;;;;;11.40;7.82;;;;;;;9.21;100.00;95656.16;5093263;28;20040;-66
2021/10/10 07:06:46;;;;;;;7.35;5.05;;;;;;;9.07;100.00;95649.38;5085249;28;20055;-67
2021/10/10 07:09:14;;;;;;;5.47;4.07;;;;;;;9.17;100.00;95654.97;5084848;28;20569;-67
2021/10/10 07:11:41;;;;;;;4.55;4.10;;;;;;;9.17;100.00;95644.59;5086010;28;20040;-67
2021/10/10 07:14:08;;;;;;;2.10;1.65;;;;;;;9.21;100.00;95650.97;5084235;28;20044;-67
2021/10/10 07:16:35;;;;;;;1.98;1.70;;;;;;;9.21;100.00;95656.16;5085975;28;20071;-66
2021/10/10 07:19:03;;;;;;;2.28;1.55;;;;;;;9.20;100.00;95659.78;5082961;28;20048;-66
2021/10/10 07:21:55;;;;;;;3.80;2.47;;;;;;;9.23;100.00;95659.38;5084067;28;20077;-67
2021/10/10 07:27:08;;;;;;;1.40;1.20;;;;;;;9.27;100.00;95657.16;5089739;28;20136;-67
2021/10/10 07:29:35;;;;;;;3.05;1.95;;;;;;;9.36;100.00;95659.38;5086662;28;20073;-72
2021/10/10 07:32:03;;;;;;;2.10;1.45;;;;;;;9.33;100.00;95659.75;5083736;28;20093;-72
2021/10/10 07:34:30;;;;;;;3.38;2.00;;;;;;;9.37;100.00;95660.94;5083535;28;20048;-71
2021/10/10 07:36:56;;;;;;;4.25;2.05;;;;;;;9.38;100.00;95654.75;5088868;28;20496;-72
2021/10/10 07:39:23;;;;;;;3.58;1.83;;;;;;;9.41;100.00;95660.53;5087914;28;20036;-72
2021/10/10 07:41:50;;;;;;;4.50;2.45;;;;;;;9.45;100.00;95662.53;5095160;28;20047;-72
2021/10/10 07:44:17;;;;;;;5.28;2.88;;;;;;;9.51;100.00;95663.53;5088367;28;20040;-71
2021/10/10 07:46:44;;;;;;;3.33;2.45;;;;;;;9.57;100.00;95660.09;5090795;28;20579;-72
2021/10/10 07:49:11;;;;;;;3.85;2.15;;;;;;;9.55;100.00;95656.91;5086608;28;20036;-71
2021/10/10 07:51:39;;;;;;;5.47;3.10;;;;;;;9.50;100.00;95654.91;5087902;28;20099;-72
2021/10/10 07:54:05;;;;;;;4.97;2.88;;;;;;;9.53;100.00;95658.94;5089383;28;20052;-72
2021/10/10 07:56:32;;;;;;;2.83;1.45;;;;;;;9.61;100.00;95668.31;5090728;28;20036;-71
2021/10/10 07:58:59;;;;;;;1.85;1.58;;;;;;;9.69;100.00;95674.09;5096240;28;20072;-66
2021/10/10 08:01:25;;;;;;;2.63;2.10;;;;;;;9.67;100.00;95665.69;5090236;28;20039;-65
2021/10/10 08:03:53;;;;;;;2.17;1.70;;;;;;;9.80;100.00;95675.25;5071879;28;20063;-66
2021/10/10 08:06:19;;;;;;;2.10;1.20;;;;;;;9.81;100.00;95673.44;5107503;28;20473;-65
2021/10/10 08:08:46;;;;;;;2.58;1.77;;;;;;;9.75;100.00;95681.06;5091699;28;20109;-65
2021/10/10 08:11:13;;;;;;;1.85;1.23;;;;;;;9.76;100.00;95674.88;5091657;28;20055;-66
2021/10/10 08:13:40;;;;;;;2.30;1.42;;;;;;;9.81;100.00;95683.84;5106087;28;20044;-65
2021/10/10 08:16:07;;;;;;;2.63;2.03;;;;;;;9.84;100.00;95683.47;5088276;28;20036;-65
2021/10/10 08:18:34;;;;;;;5.45;3.30;;;;;;;9.75;100.00;95668.06;5071252;28;20041;-65
2021/10/10 08:21:02;;;;;;;7.20;3.90;;;;;;;9.86;100.00;95678.84;5091777;28;20123;-66
2021/10/10 08:23:29;;;;;;;8.70;2.25;;;;;;;9.84;100.00;95675.66;5088180;28;20048;-66
2021/10/10 08:25:55;;;;;;;5.57;2.40;;;;;;;9.92;100.00;95684.03;5094017;28;20043;-66
2021/10/10 08:28:24;;;;;;;2.55;1.70;;;;;;;9.93;100.00;95684.81;5089095;28;20482;-67
2021/10/10 08:30:52;;;;;;;2.80;1.65;;;;;;;9.92;100.00;95688.41;5086863;28;20055;-66
2021/10/10 08:33:19;;;;;;;2.85;2.03;;;;;;;9.93;100.00;95695.22;5099724;28;20109;-66
2021/10/10 08:35:46;;;;;;;2.85;2.30;;;;;;;10.08;100.00;95697.56;5091044;28;20051;-67
2021/10/10 08:38:12;;;;;;;2.55;1.60;;;;;;;10.11;100.00;95697.19;5088276;28;20119;-67
2021/10/10 08:40:39;;;;;;;2.42;1.60;;;;;;;10.03;100.00;95685.19;5092124;28;20040;-67
2021/10/10 08:43:12;;;;;;;1.45;1.08;;;;;;;10.16;100.00;95683.56;5087746;28;20043;-66
2021/10/10 08:45:41;;;;;;;3.35;2.25;;;;;;;10.17;100.00;95690.34;5085446;28;20428;-66
2021/10/10 08:48:08;;;;;;;2.72;1.40;;;;;;;10.20;100.00;95671.72;5085777;28;20114;-66
2021/10/10 08:50:37;;;;;;;5.82;3.33;;;;;;;10.32;100.00;95672.69;5088842;28;20504;-66
2021/10/10 08:53:04;;;;;;;3.45;1.98;;;;;;;10.25;100.00;95669.28;5073822;28;20043;-66
2021/10/10 08:55:32;;;;;;;2.65;1.77;;;;;;;10.30;100.00;95659.06;5089151;28;20082;-66
2021/10/10 08:57:59;;;;;;;1.98;1.02;;;;;;;10.45;100.00;95661.41;5088202;28;20048;-66
2021/10/10 09:00:33;;;;;;;2.22;1.38;;;;;;;10.46;100.00;95637.75;5096202;28;20043;-66
2021/10/10 09:03:08;;;;;;;1.17;0.82;;;;;;;10.66;100.00;95660.25;5090217;28;20050;-66
2021/10/10 09:05:49;;;;;;;2.05;1.52;;;;;;;10.58;100.00;95650.88;5102801;28;20036;-66
2021/10/10 09:08:16;;;;;;;1.48;1.13;;;;;;;10.57;100.00;95653.69;5086191;28;20504;-66
2021/10/10 09:10:43;;;;;;;3.40;1.90;;;;;;;10.58;100.00;95655.31;5093108;28;20052;-67
2021/10/10 09:13:16;;;;;;;2.95;1.60;;;;;;;10.68;100.00;95655.66;5090149;28;20063;-66
2021/10/10 09:15:48;;;;;;;5.47;2.00;;;;;;;10.63;100.00;95650.28;5092377;28;20040;-67
2021/10/10 09:18:16;;;;;;;2.22;1.65;;;;;;;10.63;100.00;95658.09;5094983;28;20527;-67
2021/10/10 09:20:45;;;;;;;5.00;1.98;;;;;;;10.52;100.00;95660.34;5087161;28;20040;-66
2021/10/10 09:23:14;;;;;;;4.38;1.63;;;;;;;10.58;100.00;95660.53;5093156;28;20043;-66
2021/10/10 09:26:01;;;;;;;2.58;1.52;;;;;;;10.57;100.00;95653.69;5093846;28;20046;-66
2021/10/10 09:28:31;;;;;;;5.82;2.72;;;;;;;10.49;100.00;95652.94;5106932;28;20040;-67
2021/10/10 09:31:03;;;;;;;5.60;3.33;;;;;;;10.56;100.00;95646.91;5098723;28;20393;-65
2021/10/10 09:33:47;;;;;;;7.68;4.88;;;;;;;10.66;100.00;95647.22;5090419;28;20058;-66
2021/10/10 09:36:26;;;;;;;2.20;1.42;;;;;;;10.77;100.00;95643.13;5087402;28;20040;-66
2021/10/10 09:44:10;;;;;;;2.33;1.50;;;;;;;10.74;100.00;95649.59;5086932;28;20072;-65
2021/10/10 09:46:40;;;;;;;3.35;2.30;;;;;;;10.70;100.00;95653.63;5088366;28;20039;-66
2021/10/10 09:49:20;;;;;;;2.88;1.98;;;;;;;10.78;100.00;95650.75;5083479;28;20047;-66
2021/10/10 09:51:47;;;;;;;1.77;1.40;;;;;;;10.59;100.00;95620.41;5093115;28;20064;-66
2021/10/10 09:54:14;;;;;;;1.42;1.20;;;;;;;10.77;100.00;95638.75;5082495;28;20053;-67
2021/10/10 09:57:02;;;;;;;1.52;0.98;;;;;;;10.85;100.00;95637.69;5099332;28;20040;-66
2021/10/10 09:59:28;;;;;;;1.55;1.08;;;;;;;10.85;100.00;95635.84;5088287;28;20098;-66
2021/10/10 10:01:55;;;;;;;4.18;2.10;;;;;;;10.78;100.00;95624.69;5100123;28;20057;-67
2021/10/10 10:04:22;;;;;;;2.35;1.52;;;;;;;10.90;100.00;95628.22;5099971;28;20041;-67
2021/10/10 10:06:50;;;;;;;3.97;1.98;;;;;;;10.91;100.00;95621.19;5075693;28;20052;-68
2021/10/10 10:09:16;;;;;;;1.00;0.30;;;;;;;11.05;100.00;95624.47;5085563;28;20031;-67
2021/10/10 10:11:45;;;;;;;2.92;1.80;;;;;;;11.11;100.00;95628.84;5090867;28;20043;-67
2021/10/10 10:14:17;;;;;;;4.35;2.55;;;;;;;11.07;100.00;95640.69;5100177;28;21629;-67
2021/10/10 10:16:46;;;;;;;8.50;1.63;;;;;;;11.16;100.00;95626.38;5093018;28;20039;-67
2021/10/10 10:19:20;;;;;;;11.07;4.43;;;;;;;11.13;100.00;95621.63;5070566;28;20035;-68
2021/10/10 10:21:51;;;;;;;9.27;3.83;;;;;;;10.96;100.00;95630.97;5087049;28;20040;-67
2021/10/10 10:24:20;;;;;;;2.00;0.88;;;;;;;10.86;100.00;95628.88;5100778;28;20123;-67
2021/10/10 10:26:47;;;;;;;2.22;0.93;;;;;;;10.96;100.00;95621.34;5089546;28;20040;-67
2021/10/10 10:29:31;;;;;;;2.40;0.88;;;;;;;10.96;100.00;95620.56;5105982;28;20039;-67
2021/10/10 10:31:59;;;;;;;3.33;1.85;;;;;;;11.02;100.00;95624.91;5085094;28;20039;-67
2021/10/10 10:34:31;;;;;;;1.77;0.88;;;;;;;10.89;100.00;95634.44;5086452;28;20499;-67
2021/10/10 10:37:06;;;;;;;10.38;3.30;;;;;;;10.96;100.00;95630.97;5090559;28;20122;-67
2021/10/10 10:39:52;;;;;;;1.73;0.95;;;;;;;10.99;100.00;95635.78;5099669;28;20044;-67
2021/10/10 10:42:23;;;;;;;10.85;5.15;;;;;;;10.86;100.00;95636.69;5102775;28;20070;-67
2021/10/10 10:44:52;;;;;;;3.50;2.50;;;;;;;10.88;100.00;95635.44;5085417;28;20047;-67
2021/10/10 10:47:22;;;;;;;0.75;0.40;;;;;;;10.93;100.00;95636.59;5097019;28;20055;-67
2021/10/10 10:52:24;;;;;;;0.70;0.50;;;;;;;10.86;100.00;95637.47;5095620;28;20040;-67
2021/10/10 10:54:53;;;;;;;1.30;0.63;;;;;;;10.80;100.00;95617.47;5085832;28;20520;-67
2021/10/10 10:57:28;;;;;;;1.20;0.90;;;;;;;10.94;100.00;95633.00;5093167;28;20051;-65
2021/10/10 11:00:08;;;;;;;1.58;0.90;;;;;;;10.97;100.00;95632.59;5105624;28;20404;-65
2021/10/10 11:02:50;;;;;;;0.88;0.80;;;;;;;11.01;100.00;95628.53;5093902;28;20118;-65
2021/10/10 11:05:34;;;;;;;2.45;0.70;;;;;;;10.92;100.00;95627.22;5066349;28;20099;-65
2021/10/10 11:08:29;;;;;;;1.10;1.00;;;;;;;10.85;100.00;95620.22;5088508;28;20572;-66
2021/10/10 11:11:24;;;;;;;1.10;0.63;;;;;;;10.74;100.00;95623.53;5085819;28;20420;-66
2021/10/10 11:13:59;;;;;;;6.05;1.90;;;;;;;10.70;100.00;95617.16;5088069;28;20071;-66
2021/10/10 11:16:28;;;;;;;1.70;0.80;;;;;;;10.64;100.00;95628.41;5091013;28;20044;-66
2021/10/10 11:19:01;;;;;;;1.63;1.00;;;;;;;10.62;100.00;95635.63;5093632;28;20052;-66
2021/10/10 11:21:31;;;;;;;2.08;1.23;;;;;;;10.38;100.00;95624.97;5084600;28;20048;-66
2021/10/10 11:24:00;;;;;;;1.67;0.95;;;;;;;10.52;100.00;95631.69;5093991;28;20047;-66
2021/10/10 11:26:29;;;;;;;3.25;1.60;;;;;;;10.63;100.00;95629.44;5085506;28;20119;-66
2021/10/10 11:28:59;;;;;;;4.43;2.55;;;;;;;10.47;100.00;95618.50;5088158;28;20399;-66
2021/10/10 11:31:30;;;;;;;1.73;1.23;;;;;;;10.51;100.00;95619.69;5086152;28;20040;-66
2021/10/10 11:33:57;;;;;;;3.20;2.13;;;;;;;10.54;100.00;95622.88;5105490;28;20051;-66
2021/10/10 11:36:36;;;;;;;0.95;0.75;;;;;;;10.46;100.00;95616.91;5085647;28;20493;-66
2021/10/10 11:39:09;;;;;;;2.33;1.35;;;;;;;10.54;100.00;95602.03;5093881;28;20043;-66
2021/10/10 11:42:01;;;;;;;1.70;1.02;;;;;;;10.36;100.00;95593.13;5091093;28;20043;-66
2021/10/10 11:44:38;;;;;;;3.25;1.73;;;;;;;10.31;100.00;95604.16;5071656;28;20554;-66
2021/10/10 11:47:16;;;;;;;1.83;1.08;;;;;;;10.37;100.00;95610.38;5104844;28;20032;-66
2021/10/10 11:49:53;;;;;;;5.40;1.70;;;;;;;10.42;100.00;95607.13;5090892;28;20046;-66
2021/10/10 11:52:44;;;;;;;2.03;1.50;;;;;;;10.35;100.00;95609.75;5094946;28;20506;-66
2021/10/10 11:55:26;;;;;;;1.33;0.98;;;;;;;10.34;100.00;95608.19;5083911;28;20044;-66